Time;durP1;ratioP1;P1;durP2;ratioP2;P2;SDS_P1;SDS_P2;PMS_P1;PMS_P2;Temp;Humidity;BMP_temperature;BMP_pressure;BME280_temperature;BME280_humidity;BME280_pressure;Samples;Min_cycle;Max_cycle;Signal;HPM_P1;HPM_P2
2021/06/13 00:02:15;;;;;;;1999.90;999.90;;;18.80;99.90;;;;;;5054585;28;20544;-73
2021/06/13 00:04:40;;;;;;;1999.90;999.90;;;18.80;99.90;;;;;;5054646;28;20188;-73
2021/06/13 00:07:06;;;;;;;1999.90;999.90;;;18.80;99.90;;;;;;5054573;28;20178;-73
2021/06/13 00:09:32;;;;;;;1999.90;999.90;;;18.80;99.90;;;;;;5054815;28;20247;-73
2021/06/13 00:11:57;;;;;;;1999.90;999.90;;;18.80;99.90;;;;;;5054506;28;20725;-73
2021/06/13 00:14:23;;;;;;;1999.90;999.90;;;18.70;99.90;;;;;;5053553;28;20201;-73
2021/06/13 00:16:49;;;;;;;1999.90;999.90;;;18.80;99.90;;;;;;5054440;28;20177;-73
2021/06/13 00:19:15;;;;;;;1999.90;999.90;;;18.80;99.90;;;;;;5045463;28;20174;-73
2021/06/13 00:21:41;;;;;;;1999.90;999.90;;;18.70;99.90;;;;;;5053145;28;20611;-73
2021/06/13 00:24:07;;;;;;;1999.90;999.90;;;18.70;99.90;;;;;;5054192;28;20236;-73
2021/06/13 00:26:33;;;;;;;1999.90;999.90;;;18.70;99.90;;;;;;5054267;28;20235;-73
2021/06/13 00:28:59;;;;;;;1999.90;999.90;;;18.70;99.90;;;;;;5054333;28;20178;-73
2021/06/13 00:31:25;;;;;;;1999.90;999.90;;;18.70;99.90;;;;;;5052910;28;20870;-73
2021/06/13 00:33:51;;;;;;;1999.90;999.90;;;18.70;99.90;;;;;;5052752;28;20571;-73
2021/06/13 00:36:17;;;;;;;1999.90;999.90;;;18.60;99.90;;;;;;5053920;28;20181;-74
2021/06/13 00:38:42;;;;;;;1999.90;999.90;;;18.60;99.90;;;;;;5053861;28;20607;-73
2021/06/13 00:41:14;;;;;;;1999.90;999.90;;;18.70;99.90;;;;;;5054074;28;20173;-73
2021/06/13 00:43:40;;;;;;;1999.90;999.90;;;18.80;99.90;;;;;;5052552;28;20253;-73
2021/06/13 00:46:05;;;;;;;1999.90;999.90;;;18.80;99.90;;;;;;5052647;28;20622;-73
2021/06/13 00:48:31;;;;;;;1999.90;999.90;;;18.80;99.90;;;;;;5052556;28;20562;-73
2021/06/13 00:50:58;;;;;;;1999.90;999.90;;;18.80;99.90;;;;;;5053971;28;20260;-73
2021/06/13 00:53:26;;;;;;;1999.90;999.90;;;18.70;99.90;;;;;;5052184;28;20568;-73
2021/06/13 00:55:52;;;;;;;1999.90;999.90;;;18.70;99.90;;;;;;5053488;28;20194;-73
2021/06/13 00:58:18;;;;;;;1999.90;999.90;;;18.70;99.90;;;;;;5053700;28;20227;-73
2021/06/13 01:00:44;;;;;;;1999.90;999.90;;;18.70;99.90;;;;;;5053739;28;20177;-73
2021/06/13 01:03:10;;;;;;;1999.90;999.90;;;18.70;99.90;;;;;;5053535;28;20277;-73
2021/06/13 01:05:36;;;;;;;1999.90;999.90;;;18.70;99.90;;;;;;5053605;28;20174;-73
2021/06/13 01:08:38;;;;;;;1999.90;999.90;;;18.70;99.90;;;;;;5053526;28;20178;-73
2021/06/13 01:11:31;;;;;;;1999.90;999.90;;;18.70;99.90;;;;;;5053118;28;20173;-73
2021/06/13 01:14:10;;;;;;;1999.90;999.90;;;18.70;99.90;;;;;;5052644;28;20190;-74
2021/06/13 01:17:00;;;;;;;1999.90;999.90;;;18.70;99.90;;;;;;5053372;28;20183;-74
2021/06/13 01:19:28;;;;;;;1999.90;999.90;;;18.70;99.90;;;;;;5044606;28;20260;-73
2021/06/13 01:21:54;;;;;;;1999.90;999.90;;;18.70;99.90;;;;;;5053301;28;20303;-73
2021/06/13 01:24:30;;;;;;;1999.90;999.90;;;18.70;99.90;;;;;;5053174;28;20220;-73
2021/06/13 01:26:58;;;;;;;1999.90;999.90;;;18.70;99.90;;;;;;5053599;28;20196;-73
2021/06/13 01:29:27;;;;;;;1999.90;999.90;;;18.70;99.90;;;;;;5052816;28;20182;-73
2021/06/13 01:31:55;;;;;;;1999.90;999.90;;;18.70;99.90;;;;;;5030347;28;20652;-73
2021/06/13 01:34:35;;;;;;;1999.90;999.90;;;18.70;99.90;;;;;;5031853;28;20208;-73
2021/06/13 01:37:05;;;;;;;1999.90;999.90;;;18.70;99.90;;;;;;5020829;28;20166;-73
2021/06/13 01:39:33;;;;;;;1999.90;999.90;;;18.70;99.90;;;;;;5030891;28;20518;-74
2021/06/13 01:41:59;;;;;;;1999.90;999.90;;;18.70;99.90;;;;;;5037879;28;20649;-74
2021/06/13 01:44:27;;;;;;;1999.90;999.90;;;18.70;99.90;;;;;;5050780;28;20222;-74
2021/06/13 01:46:54;;;;;;;1999.90;999.90;;;18.70;99.90;;;;;;5050548;28;20540;-73
2021/06/13 01:49:20;;;;;;;1999.90;999.90;;;18.80;99.90;;;;;;5052572;28;20205;-73
2021/06/13 01:51:46;;;;;;;1999.90;999.90;;;18.80;99.90;;;;;;5052550;28;20186;-73
2021/06/13 01:54:14;;;;;;;1999.90;999.90;;;18.80;99.90;;;;;;5052031;28;20202;-75
2021/06/13 01:56:46;;;;;;;1999.90;999.90;;;18.80;99.90;;;;;;5051286;28;20713;-74
2021/06/13 01:59:14;;;;;;;1999.90;999.90;;;18.80;99.90;;;;;;5052831;28;20788;-74
2021/06/13 02:01:40;;;;;;;1999.90;999.90;;;18.80;99.90;;;;;;5052832;28;20173;-74
2021/06/13 02:04:06;;;;;;;1999.90;999.90;;;18.70;99.90;;;;;;5052573;28;20212;-74
2021/06/13 02:06:36;;;;;;;1999.90;999.90;;;18.70;99.90;;;;;;5052673;28;20182;-74
2021/06/13 02:09:04;;;;;;;1999.90;999.90;;;18.80;99.90;;;;;;5052255;28;20189;-74
2021/06/13 02:11:31;;;;;;;1999.90;999.90;;;18.80;99.90;;;;;;5052644;28;20181;-74
2021/06/13 02:13:58;;;;;;;1999.90;999.90;;;18.80;99.90;;;;;;5052363;28;20250;-74
2021/06/13 02:16:25;;;;;;;1999.90;999.90;;;18.80;99.90;;;;;;5052567;28;20177;-74
2021/06/13 02:18:51;;;;;;;1999.90;999.90;;;18.80;99.90;;;;;;5043922;28;20182;-74
2021/06/13 02:21:18;;;;;;;1999.90;999.90;;;18.80;99.90;;;;;;5051269;28;20177;-74
2021/06/13 02:23:44;;;;;;;1999.90;999.90;;;18.80;99.90;;;;;;5051107;28;20572;-74
2021/06/13 02:26:12;;;;;;;1999.90;999.90;;;18.80;99.90;;;;;;5053864;28;20248;-74
2021/06/13 02:28:46;;;;;;;1999.90;999.90;;;18.80;99.90;;;;;;5054960;28;20235;-74
2021/06/13 02:31:12;;;;;;;1999.90;999.90;;;18.80;99.90;;;;;;5056433;28;20202;-74
2021/06/13 02:33:42;;;;;;;1999.90;999.90;;;18.70;99.90;;;;;;5055097;28;20224;-74
2021/06/13 02:36:09;;;;;;;1999.90;999.90;;;18.70;99.90;;;;;;5056325;28;20248;-74
2021/06/13 02:38:35;;;;;;;1999.90;999.90;;;18.80;99.90;;;;;;5056293;28;20202;-74
2021/06/13 02:41:00;;;;;;;1999.90;999.90;;;18.80;99.90;;;;;;5056413;28;20667;-74
2021/06/13 02:43:26;;;;;;;1999.90;999.90;;;18.70;99.90;;;;;;5055916;28;20217;-74
2021/06/13 02:45:52;;;;;;;1999.90;999.90;;;18.70;99.90;;;;;;5056158;28;20177;-74
2021/06/13 02:48:18;;;;;;;1999.90;999.90;;;18.70;99.90;;;;;;5055882;28;20223;-74
2021/06/13 02:50:44;;;;;;;1999.90;999.90;;;18.70;99.90;;;;;;5056101;28;20181;-74
2021/06/13 02:53:42;;;;;;;1999.90;999.90;;;18.80;99.90;;;;;;5054693;28;20671;-74
2021/06/13 02:56:26;;;;;;;1999.90;999.90;;;18.80;99.90;;;;;;5056033;28;20181;-73
2021/06/13 02:59:21;;;;;;;1999.90;999.90;;;18.80;99.90;;;;;;5056012;28;20185;-74
2021/06/13 03:01:48;;;;;;;1999.90;999.90;;;18.80;99.90;;;;;;5056038;28;20178;-74
2021/06/13 03:04:17;;;;;;;1999.90;999.90;;;18.80;99.90;;;;;;5055771;28;20208;-74
2021/06/13 03:06:46;;;;;;;1999.90;999.90;;;18.70;99.90;;;;;;5055613;28;20577;-74
2021/06/13 03:09:12;;;;;;;1999.90;999.90;;;18.70;99.90;;;;;;5055711;28;20177;-74
2021/06/13 03:11:38;;;;;;;1999.90;999.90;;;18.60;99.90;;;;;;5054544;28;20535;-73
2021/06/13 03:14:06;;;;;;;1999.90;999.90;;;18.60;99.90;;;;;;5055477;28;20204;-74
2021/06/13 03:16:33;;;;;;;1999.90;999.90;;;18.50;99.90;;;;;;5055868;28;20241;-74
2021/06/13 03:18:59;;;;;;;1999.90;999.90;;;18.20;99.90;;;;;;5046884;28;20181;-74
2021/06/13 03:21:27;;;;;;;1999.90;999.90;;;18.10;99.90;;;;;;5055439;28;20181;-74
2021/06/13 03:23:54;;;;;;;1999.90;999.90;;;18.10;99.90;;;;;;5038898;28;20198;-74
2021/06/13 03:26:21;;;;;;;1999.90;999.90;;;18.10;99.90;;;;;;5055611;28;20174;-74
2021/06/13 03:28:52;;;;;;;1999.90;999.90;;;18.20;99.90;;;;;;5055431;28;20643;-74
2021/06/13 03:31:18;;;;;;;1999.90;999.90;;;18.20;99.90;;;;;;5055543;28;20194;-74
2021/06/13 03:33:46;;;;;;;1999.90;999.90;;;18.30;99.90;;;;;;5054515;28;20228;-74
2021/06/13 03:36:13;;;;;;;1999.90;999.90;;;18.40;99.90;;;;;;5053690;28;20193;-74
2021/06/13 03:38:40;;;;;;;1999.90;999.90;;;18.40;99.90;;;;;;5054994;28;20174;-74
2021/06/13 03:41:08;;;;;;;1999.90;999.90;;;18.40;99.90;;;;;;5054859;28;20184;-74
2021/06/13 03:43:33;;;;;;;1999.90;999.90;;;18.40;99.90;;;;;;5054851;28;20733;-74
2021/06/13 03:46:00;;;;;;;1999.90;999.90;;;18.40;99.90;;;;;;5053846;28;20182;-74
2021/06/13 03:48:26;;;;;;;1999.90;999.90;;;18.50;99.90;;;;;;5055070;28;20181;-74
2021/06/13 03:50:53;;;;;;;1999.90;999.90;;;18.50;99.90;;;;;;5053806;28;20178;-74
2021/06/13 03:53:21;;;;;;;1999.90;999.90;;;18.40;99.90;;;;;;5054193;28;20201;-74
2021/06/13 03:55:47;;;;;;;1999.90;999.90;;;18.30;99.90;;;;;;5054408;28;20276;-74
2021/06/13 03:58:14;;;;;;;1999.90;999.90;;;18.30;99.90;;;;;;5053660;28;20181;-74
2021/06/13 04:00:43;;;;;;;1999.90;999.90;;;18.30;99.90;;;;;;5048096;28;20178;-74
2021/06/13 04:03:10;;;;;;;1999.90;999.90;;;18.20;99.90;;;;;;5035357;28;20209;-74
2021/06/13 04:05:39;;;;;;;1999.90;999.90;;;18.20;99.90;;;;;;5036486;28;20185;-74
2021/06/13 04:08:07;;;;;;;1999.90;999.90;;;18.20;99.90;;;;;;5030434;28;20186;-74
2021/06/13 04:10:33;;;;;;;1999.90;999.90;;;18.20;99.90;;;;;;5030657;28;20248;-74
2021/06/13 04:12:59;;;;;;;1999.90;999.90;;;18.20;99.90;;;;;;5033343;28;20209;-74
2021/06/13 04:15:26;;;;;;;1999.90;999.90;;;18.20;99.90;;;;;;5049681;22;20213;-75
2021/06/13 04:17:53;;;;;;;1999.90;999.90;;;18.20;99.90;;;;;;5091478;28;20200;-73
2021/06/13 04:20:20;;;;;;;1999.90;999.90;;;18.30;99.90;;;;;;5090117;28;20176;-73
2021/06/13 04:22:46;;;;;;;1999.90;999.90;;;18.20;99.90;;;;;;5092495;28;20260;-76
2021/06/13 04:25:13;;;;;;;1999.90;999.90;;;18.20;99.90;;;;;;5090477;28;20196;-74
2021/06/13 04:27:40;;;;;;;1999.90;999.90;;;18.20;99.90;;;;;;5088268;28;20193;-73
2021/06/13 04:30:08;;;;;;;1999.90;999.90;;;18.20;99.90;;;;;;5090601;28;20172;-73
2021/06/13 04:32:35;;;;;;;1999.90;999.90;;;18.20;99.90;;;;;;5089845;28;20180;-74
2021/06/13 04:35:01;;;;;;;1999.90;999.90;;;18.20;99.90;;;;;;5090006;28;20249;-74
2021/06/13 04:37:27;;;;;;;1999.90;999.90;;;18.20;99.90;;;;;;5087133;28;20628;-73
2021/06/13 04:39:52;;;;;;;1999.90;999.90;;;18.30;99.90;;;;;;5085345;28;20176;-72
2021/06/13 04:42:19;;;;;;;1999.90;999.90;;;18.30;99.90;;;;;;5089519;28;20172;-74
2021/06/13 04:44:45;;;;;;;1999.90;999.90;;;18.30;99.90;;;;;;5088734;28;20184;-74
2021/06/13 04:47:10;;;;;;;1999.90;999.90;;;18.30;99.90;;;;;;5090402;28;20196;-73
2021/06/13 04:49:37;;;;;;;1999.90;999.90;;;18.40;99.90;;;;;;5088093;28;20176;-75
2021/06/13 04:52:06;;;;;;;1999.90;999.90;;;18.30;99.90;;;;;;5087745;28;20190;-74
2021/06/13 04:54:44;;;;;;;1999.90;999.90;;;18.40;99.90;;;;;;5089010;28;20230;-74
2021/06/13 04:57:17;;;;;;;1999.90;999.90;;;18.30;99.90;;;;;;5086954;28;20202;-74
2021/06/13 04:59:43;;;;;;;1999.90;999.90;;;18.30;99.90;;;;;;5072449;28;20181;-74
2021/06/13 05:02:09;;;;;;;1999.90;999.90;;;18.20;99.90;;;;;;5090585;28;20658;-74
2021/06/13 05:04:34;;;;;;;1999.90;999.90;;;18.30;99.90;;;;;;5090769;28;20264;-74
2021/06/13 05:07:04;;;;;;;1999.90;999.90;;;18.30;99.90;;;;;;5086641;28;20263;-75
2021/06/13 05:09:31;;;;;;;1999.90;999.90;;;18.40;99.90;;;;;;5087268;28;20268;-74
2021/06/13 05:11:56;;;;;;;1999.90;999.90;;;18.40;99.90;;;;;;5085517;28;20256;-74
2021/06/13 05:14:22;;;;;;;1999.90;999.90;;;18.40;99.90;;;;;;5089372;28;20279;-74
2021/06/13 05:16:48;;;;;;;1999.90;999.90;;;18.50;99.90;;;;;;5088490;28;20212;-75
2021/06/13 05:19:13;;;;;;;1999.90;999.90;;;18.50;99.90;;;;;;5084596;28;20656;-74
2021/06/13 05:21:39;;;;;;;1999.90;999.90;;;18.60;99.90;;;;;;5090377;28;20184;-75
2021/06/13 05:24:05;;;;;;;1999.90;999.90;;;18.70;99.90;;;;;;5087928;28;20179;-74
2021/06/13 05:26:31;;;;;;;1999.90;999.90;;;18.80;99.90;;;;;;5077881;28;20227;-75
2021/06/13 05:28:58;;;;;;;1999.90;999.90;;;18.90;99.90;;;;;;5078970;28;20582;-75
2021/06/13 05:31:23;;;;;;;1999.90;999.90;;;19.00;99.90;;;;;;5079628;28;20244;-75
2021/06/13 05:33:49;;;;;;;1999.90;999.90;;;19.10;99.90;;;;;;5070854;28;20794;-74
2021/06/13 05:36:15;;;;;;;1999.90;999.90;;;19.20;99.90;;;;;;5079621;28;20201;-75
2021/06/13 05:38:43;;;;;;;1999.90;999.90;;;19.30;99.90;;;;;;5072101;28;20256;-75
2021/06/13 05:41:13;;;;;;;1999.90;999.90;;;19.40;99.90;;;;;;5070894;28;20188;-75
2021/06/13 05:43:40;;;;;;;1999.90;999.90;;;19.50;99.90;;;;;;5070760;28;20185;-75
2021/06/13 05:46:06;;;;;;;1999.90;999.90;;;19.50;99.90;;;;;;5067741;28;20659;-75
2021/06/13 05:48:33;;;;;;;1999.90;999.90;;;19.60;99.90;;;;;;5072126;28;20177;-75
2021/06/13 05:50:59;;;;;;;1999.90;999.90;;;19.70;99.90;;;;;;5073089;28;20575;-75
2021/06/13 05:53:25;;;;;;;1999.90;999.90;;;19.70;99.90;;;;;;5087635;28;20275;-74
2021/06/13 05:55:50;;;;;;;1999.90;999.90;;;19.70;99.90;;;;;;5088235;28;20618;-75
2021/06/13 05:58:17;;;;;;;1999.90;999.90;;;19.60;99.90;;;;;;5090837;28;20268;-74
2021/06/13 06:00:43;;;;;;;1999.90;999.90;;;19.80;99.90;;;;;;5086375;28;20627;-74
2021/06/13 06:03:08;;;;;;;1999.90;999.90;;;19.80;99.90;;;;;;5082693;28;20192;-74
2021/06/13 06:05:35;;;;;;;1999.90;999.90;;;19.90;99.90;;;;;;5071816;28;20184;-75
2021/06/13 06:08:01;;;;;;;1999.90;999.90;;;19.90;99.90;;;;;;5072892;28;20548;-73
2021/06/13 06:10:28;;;;;;;1999.90;999.90;;;19.90;99.90;;;;;;5083796;28;20241;-74
2021/06/13 06:12:56;;;;;;;1999.90;999.90;;;19.80;99.90;;;;;;5072652;28;20184;-75
2021/06/13 06:15:23;;;;;;;1999.90;999.90;;;19.90;99.90;;;;;;5072334;28;20283;-76
2021/06/13 06:17:50;;;;;;;1999.90;999.90;;;20.00;99.90;;;;;;5070790;28;20559;-75
2021/06/13 06:20:19;;;;;;;1999.90;999.90;;;20.00;99.90;;;;;;5072658;28;20223;-76
2021/06/13 06:22:45;;;;;;;1999.90;999.90;;;19.90;99.90;;;;;;5082877;28;20199;-74
2021/06/13 06:25:12;;;;;;;1999.90;999.90;;;20.00;99.90;;;;;;5071451;28;20687;-74
2021/06/13 06:27:38;;;;;;;1999.90;999.90;;;20.00;99.90;;;;;;5072255;28;20296;-75
2021/06/13 06:30:06;;;;;;;1999.90;999.90;;;20.10;99.90;;;;;;5071337;28;20185;-74
2021/06/13 06:32:31;;;;;;;1999.90;999.90;;;20.00;99.90;;;;;;5072930;28;20185;-74
2021/06/13 06:34:57;;;;;;;1999.90;999.90;;;20.00;99.90;;;;;;5072002;28;20201;-75
2021/06/13 06:37:23;;;;;;;1999.90;999.90;;;19.90;99.90;;;;;;5072336;28;20196;-73
2021/06/13 06:39:48;;;;;;;1999.90;999.90;;;19.90;99.90;;;;;;5071060;28;20180;-74
2021/06/13 06:42:14;;;;;;;1999.90;999.90;;;20.00;99.90;;;;;;5071171;28;20204;-75
2021/06/13 06:44:40;;;;;;;1999.90;999.90;;;20.00;99.90;;;;;;5071972;28;20200;-75
2021/06/13 06:47:06;;;;;;;1999.90;999.90;;;20.10;99.90;;;;;;5072172;28;20201;-74
2021/06/13 06:49:32;;;;;;;1999.90;999.90;;;20.10;99.90;;;;;;5083146;28;20191;-74
2021/06/13 06:51:59;;;;;;;1999.90;999.90;;;20.10;99.90;;;;;;5086067;28;20181;-75
2021/06/13 06:54:25;;;;;;;1999.90;999.90;;;20.20;99.90;;;;;;5087480;28;20246;-75
2021/06/13 06:56:51;;;;;;;1999.90;999.90;;;20.30;99.90;;;;;;5085723;28;20227;-75
2021/06/13 08:48:29;;;;;;;1999.90;999.90;;;22.60;99.90;;;;;;5008714;28;20242;-75
2021/06/13 08:50:57;;;;;;;1999.90;999.90;;;22.90;99.90;;;;;;5002694;28;20653;-75
2021/06/13 08:56:01;;;;;;;1999.90;999.90;;;23.10;99.90;;;;;;6062911;22;20226;-73
2021/06/13 08:58:27;;;;;;;1999.90;999.90;;;22.90;99.90;;;;;;5015643;28;20226;-73
2021/06/13 09:00:53;;;;;;;1999.90;999.90;;;22.70;99.90;;;;;;5011881;28;20175;-73
2021/06/13 09:03:19;;;;;;;1999.90;999.90;;;22.90;99.90;;;;;;5013755;28;20680;-73
2021/06/13 09:05:47;;;;;;;1999.90;999.90;;;23.00;99.90;;;;;;5012372;28;20171;-72
2021/06/13 09:08:14;;;;;;;1999.90;999.90;;;23.10;99.90;;;;;;5011355;28;20175;-73
2021/06/13 09:10:43;;;;;;;1999.90;999.90;;;23.10;99.90;;;;;;5055803;22;20230;-75
2021/06/13 09:13:24;;;;;;;1999.90;999.90;;;23.10;99.90;;;;;;5031761;28;20166;-76
2021/06/13 09:15:52;;;;;;;1999.90;999.90;;;23.10;99.90;;;;;;5036822;28;20218;-76
2021/06/13 09:18:30;;;;;;;1999.90;999.90;;;23.20;99.90;;;;;;5034731;28;20169;-76
2021/06/13 09:20:57;;;;;;;1999.90;999.90;;;23.30;99.90;;;;;;5022267;28;20198;-76
2021/06/13 09:23:22;;;;;;;1999.90;999.90;;;23.50;99.90;;;;;;5033518;28;20256;-75
2021/06/13 09:26:00;;;;;;;1999.90;999.90;;;23.60;99.90;;;;;;5031712;28;20373;-75
2021/06/13 09:28:27;;;;;;;1999.90;999.90;;;23.60;99.90;;;;;;5043327;28;20211;-75
2021/06/13 09:30:54;;;;;;;1999.90;999.90;;;23.70;99.90;;;;;;5029318;28;20790;-76
2021/06/13 09:33:32;;;;;;;1999.90;999.90;;;23.70;99.90;;;;;;5031174;28;20201;-76
2021/06/13 09:36:00;;;;;;;1999.90;999.90;;;23.70;99.90;;;;;;5030823;28;20182;-75
2021/06/13 09:38:30;;;;;;;1999.90;999.90;;;23.70;99.90;;;;;;5031393;28;20652;-76
2021/06/13 09:40:59;;;;;;;1999.90;999.90;;;23.60;99.90;;;;;;5031741;28;20680;-76
2021/06/13 09:43:35;;;;;;;1999.90;999.90;;;23.80;99.90;;;;;;5031289;28;20185;-76
2021/06/13 09:46:10;;;;;;;1999.90;999.90;;;23.80;99.90;;;;;;5032290;28;20174;-75
2021/06/13 09:48:41;;;;;;;1999.90;999.90;;;23.80;99.90;;;;;;5029976;28;20192;-76
2021/06/13 09:51:18;;;;;;;1999.90;999.90;;;24.10;99.90;;;;;;5033041;28;20285;-76
2021/06/13 09:53:49;;;;;;;1999.90;999.90;;;24.30;99.90;;;;;;5028809;28;20212;-75
2021/06/13 09:56:37;;;;;;;1999.90;999.90;;;24.50;99.90;;;;;;5033273;28;20205;-76
2021/06/13 09:59:07;;;;;;;1999.90;999.90;;;24.60;99.90;;;;;;5023738;28;20252;-75
2021/06/13 10:01:40;;;;;;;1999.90;999.90;;;24.50;99.90;;;;;;5024864;28;20237;-76
2021/06/13 10:04:23;;;;;;;1999.90;999.90;;;24.40;99.90;;;;;;5022449;28;20171;-75
2021/06/13 10:06:52;;;;;;;1999.90;999.90;;;24.40;99.90;;;;;;5034589;28;20166;-75
2021/06/13 10:09:20;;;;;;;1999.90;999.90;;;24.50;99.90;;;;;;5027707;28;20257;-76
2021/06/13 10:11:48;;;;;;;1999.90;999.90;;;24.60;99.90;;;;;;5016480;28;20187;-76
2021/06/13 10:14:18;;;;;;;1999.90;999.90;;;24.70;99.90;;;;;;5026466;28;20198;-75
2021/06/13 10:16:49;;;;;;;1999.90;999.90;;;24.60;99.90;;;;;;5025584;28;20194;-75
2021/06/13 10:19:23;;;;;;;1999.90;999.90;;;24.60;99.90;;;;;;5028976;28;20179;-76
2021/06/13 10:21:54;;;;;;;1999.90;999.90;;;24.60;99.90;;;;;;5024927;28;20190;-76
2021/06/13 10:24:23;;;;;;;1999.90;999.90;;;24.80;99.90;;;;;;5027407;28;20253;-73
2021/06/13 10:27:01;;;;;;;1999.90;999.90;;;24.70;99.90;;;;;;5018280;28;20187;-76
2021/06/13 10:29:29;;;;;;;1999.90;999.90;;;24.60;99.90;;;;;;5019664;28;20202;-76
2021/06/13 10:31:58;;;;;;;1999.90;999.90;;;24.60;99.90;;;;;;5022517;28;20179;-76
2021/06/13 10:34:26;;;;;;;1999.90;999.90;;;24.60;99.90;;;;;;5021037;28;20317;-75
2021/06/13 10:36:54;;;;;;;1999.90;999.90;;;24.60;99.90;;;;;;5028587;28;20257;-75
2021/06/13 10:39:22;;;;;;;1999.90;999.90;;;24.70;99.90;;;;;;5025274;28;20261;-75
2021/06/13 10:41:48;;;;;;;1999.90;999.90;;;24.60;99.90;;;;;;5023496;28;20187;-76
2021/06/13 10:44:19;;;;;;;1999.90;999.90;;;24.80;99.90;;;;;;5022229;28;20594;-76
2021/06/13 10:46:50;;;;;;;1999.90;999.90;;;24.90;99.90;;;;;;5027083;28;20182;-75
2021/06/13 10:49:35;;;;;;;1999.90;999.90;;;25.10;99.90;;;;;;5032134;28;20182;-76
2021/06/13 10:52:18;;;;;;;1999.90;999.90;;;25.00;99.90;;;;;;5024794;28;20188;-75
2021/06/13 10:54:53;;;;;;;1999.90;999.90;;;25.10;99.90;;;;;;5044702;28;20245;-76
2021/06/13 10:57:19;;;;;;;1999.90;999.90;;;25.00;99.90;;;;;;5027246;28;20209;-75
2021/06/13 10:59:49;;;;;;;1999.90;999.90;;;24.80;99.90;;;;;;5033487;28;20260;-76
2021/06/13 11:02:19;;;;;;;1999.90;999.90;;;25.00;99.90;;;;;;5017854;28;20201;-75
2021/06/13 11:04:49;;;;;;;1999.90;999.90;;;25.40;99.90;;;;;;5026528;28;20232;-76
2021/06/13 11:07:30;;;;;;;1999.90;999.90;;;25.70;99.90;;;;;;5028073;28;20186;-75
2021/06/13 11:12:59;;;;;;;1999.90;999.90;;;25.70;99.90;;;;;;5032337;28;20197;-75
2021/06/13 11:15:41;;;;;;;1999.90;999.90;;;25.60;99.90;;;;;;5024492;28;20217;-75
2021/06/13 11:18:30;;;;;;;1999.90;999.90;;;25.70;99.90;;;;;;5030350;28;20181;-76
2021/06/13 11:21:05;;;;;;;1999.90;999.90;;;25.80;99.90;;;;;;5027026;28;20206;-76
2021/06/13 11:23:31;;;;;;;1999.90;999.90;;;25.80;99.90;;;;;;5024255;28;20256;-75
2021/06/13 11:25:59;;;;;;;1999.90;999.90;;;25.80;99.90;;;;;;5029451;28;20593;-76
2021/06/13 11:28:42;;;;;;;1999.90;999.90;;;25.90;99.90;;;;;;5027944;28;20187;-76
2021/06/13 11:31:13;;;;;;;1999.90;999.90;;;25.70;99.90;;;;;;5030082;28;20208;-76
2021/06/13 11:33:39;;;;;;;1999.90;999.90;;;25.70;99.90;;;;;;5026963;28;20195;-76
2021/06/13 11:36:26;;;;;;;1999.90;999.90;;;25.60;99.90;;;;;;5029572;28;20237;-76
2021/06/13 11:39:04;;;;;;;1999.90;999.90;;;25.70;99.90;;;;;;5014566;28;20209;-76
2021/06/13 11:41:36;;;;;;;1999.90;999.90;;;25.70;99.90;;;;;;5024526;28;20202;-75
2021/06/13 11:44:07;;;;;;;1999.90;999.90;;;25.60;99.90;;;;;;5028316;28;20646;-75
2021/06/13 11:46:39;;;;;;;1999.90;999.90;;;25.50;99.90;;;;;;5026790;28;20183;-76
2021/06/13 11:49:07;;;;;;;1999.90;999.90;;;25.70;99.90;;;;;;5025668;28;20555;-75
2021/06/13 11:51:50;;;;;;;1999.90;999.90;;;25.80;99.90;;;;;;5021331;28;20232;-75
2021/06/13 11:54:37;;;;;;;1999.90;999.90;;;25.70;99.90;;;;;;5029093;28;20234;-76
2021/06/13 11:57:10;;;;;;;1999.90;999.90;;;25.70;99.90;;;;;;5027970;28;20664;-75
2021/06/13 11:59:35;;;;;;;1999.90;999.90;;;25.60;99.90;;;;;;5017601;28;20229;-76
2021/06/13 12:02:06;;;;;;;1999.90;999.90;;;25.40;99.90;;;;;;5027822;28;20644;-75
2021/06/13 12:04:33;;;;;;;1999.90;999.90;;;25.30;99.90;;;;;;5024000;28;20183;-76
2021/06/13 12:07:00;;;;;;;1999.90;999.90;;;25.40;99.90;;;;;;5021543;28;20223;-75
2021/06/13 12:09:32;;;;;;;1999.90;999.90;;;25.50;99.90;;;;;;5026429;28;20215;-75
2021/06/13 12:12:00;;;;;;;1999.90;999.90;;;25.50;99.90;;;;;;5023813;28;20541;-76
2021/06/13 12:14:25;;;;;;;1999.90;999.90;;;25.50;99.90;;;;;;5017793;28;20210;-76
2021/06/13 12:16:59;;;;;;;1999.90;999.90;;;25.60;99.90;;;;;;5027850;28;20182;-76
2021/06/13 12:19:26;;;;;;;1999.90;999.90;;;25.60;99.90;;;;;;5028971;28;20668;-76
2021/06/13 12:21:52;;;;;;;1999.90;999.90;;;26.00;99.90;;;;;;5029287;28;20183;-76
2021/06/13 12:29:40;;;;;;;1999.90;999.90;;;26.20;99.90;;;;;;5028173;28;20202;-75
2021/06/13 12:32:13;;;;;;;1999.90;999.90;;;26.50;99.90;;;;;;5030219;28;20202;-76
2021/06/13 12:34:40;;;;;;;1999.90;999.90;;;26.20;99.90;;;;;;5028054;28;20580;-76
2021/06/13 12:37:13;;;;;;;1999.90;999.90;;;26.30;99.90;;;;;;5028797;28;20175;-76
2021/06/13 12:39:39;;;;;;;1999.90;999.90;;;26.00;99.90;;;;;;5026884;28;20252;-76
2021/06/13 12:42:23;;;;;;;1999.90;999.90;;;26.20;99.90;;;;;;5028716;28;20182;-75
2021/06/13 12:45:05;;;;;;;1999.90;999.90;;;26.20;99.90;;;;;;5027003;28;20201;-75
2021/06/13 12:47:32;;;;;;;1999.90;999.90;;;26.40;99.90;;;;;;5026931;28;20178;-76
2021/06/13 12:49:59;;;;;;;1999.90;999.90;;;26.50;99.90;;;;;;5031012;28;20205;-74
2021/06/13 12:52:26;;;;;;;1999.90;999.90;;;26.70;99.90;;;;;;5030526;28;20275;-75
2021/06/13 12:55:05;;;;;;;1999.90;999.90;;;26.80;99.90;;;;;;5032299;28;20626;-76
2021/06/13 12:57:31;;;;;;;1999.90;999.90;;;27.00;99.90;;;;;;5029623;28;20209;-76
2021/06/13 12:59:57;;;;;;;1999.90;999.90;;;27.20;99.90;;;;;;5031669;28;20194;-73
2021/06/13 13:02:23;;;;;;;1999.90;999.90;;;27.30;99.90;;;;;;5027296;28;20197;-75
2021/06/13 13:04:53;;;;;;;1999.90;999.90;;;27.10;99.90;;;;;;5031028;28;20248;-75
2021/06/13 13:07:36;;;;;;;1999.90;999.90;;;26.90;99.90;;;;;;5031317;28;20186;-76
2021/06/13 13:10:24;;;;;;;1999.90;999.90;;;26.80;99.90;;;;;;5030234;28;20214;-75
2021/06/13 13:12:54;;;;;;;1999.90;999.90;;;26.60;99.90;;;;;;5032766;28;20178;-75
2021/06/13 13:15:30;;;;;;;1999.90;999.90;;;26.40;99.90;;;;;;5031057;28;20660;-76
2021/06/13 13:18:12;;;;;;;1999.90;999.90;;;26.60;99.90;;;;;;5028643;28;20174;-73
2021/06/13 13:20:38;;;;;;;1999.90;999.90;;;26.60;99.90;;;;;;5031364;28;20198;-76
2021/06/13 13:23:09;;;;;;;1999.90;999.90;;;26.40;99.90;;;;;;5032257;28;20189;-73
2021/06/13 13:25:39;;;;;;;1999.90;999.90;;;26.30;99.90;;;;;;5032492;28;20187;-74
2021/06/13 13:28:28;;;;;;;1999.90;999.90;;;25.90;99.90;;;;;;5032565;28;20529;-75
2021/06/13 13:31:15;;;;;;;1999.90;999.90;;;25.60;99.90;;;;;;5032892;28;20206;-74
2021/06/13 13:34:02;;;;;;;1999.90;999.90;;;25.70;99.90;;;;;;5032781;28;20198;-73
2021/06/13 13:36:44;;;;;;;1999.90;999.90;;;25.80;99.90;;;;;;5030771;28;20240;-73
2021/06/13 13:39:11;;;;;;;1999.90;999.90;;;25.80;99.90;;;;;;5031269;28;20181;-72
2021/06/13 13:41:42;;;;;;;1999.90;999.90;;;25.90;99.90;;;;;;5032291;28;20208;-72
2021/06/13 13:44:11;;;;;;;1999.90;999.90;;;25.80;99.90;;;;;;5033094;28;20668;-72
2021/06/13 13:46:42;;;;;;;1999.90;999.90;;;25.80;99.90;;;;;;5032350;28;20175;-72
2021/06/13 13:49:10;;;;;;;1999.90;999.90;;;25.70;99.90;;;;;;5031627;28;20664;-71
2021/06/13 13:51:47;;;;;;;1999.90;999.90;;;25.60;99.90;;;;;;5031564;28;20201;-74
2021/06/13 13:54:28;;;;;;;1999.90;999.90;;;25.60;99.90;;;;;;5028932;28;20645;-73
2021/06/13 13:57:02;;;;;;;1999.90;999.90;;;25.60;99.90;;;;;;5032122;28;20186;-73
2021/06/13 13:59:28;;;;;;;1999.90;999.90;;;25.70;99.90;;;;;;5030742;28;20222;-73
2021/06/13 14:01:55;;;;;;;1999.90;999.90;;;26.10;99.90;;;;;;5030062;28;20600;-72
2021/06/13 14:04:24;;;;;;;1999.90;999.90;;;26.10;99.90;;;;;;5031317;28;20186;-72
2021/06/13 14:06:54;;;;;;;1999.90;999.90;;;25.90;99.90;;;;;;5032732;28;20179;-73
2021/06/13 14:09:21;;;;;;;1999.90;999.90;;;25.90;99.90;;;;;;5032148;28;20206;-73
2021/06/13 14:11:48;;;;;;;1999.90;999.90;;;26.10;99.90;;;;;;5024715;28;20598;-74